createdAt,value
2022-08-05T00:01:27.816Z,61.73
2022-08-05T00:03:55.007Z,61.57
2022-08-05T00:06:32.243Z,62.93
2022-08-05T00:08:59.860Z,61.71
2022-08-05T00:11:34.607Z,60.99
2022-08-05T00:14:12.970Z,62.29
2022-08-05T00:16:53.076Z,62.66
2022-08-05T00:19:25.082Z,61.43
2022-08-05T00:22:00.295Z,63.93
2022-08-05T00:24:31.130Z,64.04
2022-08-05T00:26:59.508Z,64.09
2022-08-05T00:29:27.452Z,63.72
2022-08-05T00:32:12.790Z,62.72
2022-08-05T00:35:05.263Z,63.11
2022-08-05T00:37:50.420Z,63.30
2022-08-05T00:40:17.912Z,66.37
2022-08-05T00:42:56.144Z,68.99
2022-08-05T00:45:39.009Z,67.82
2022-08-05T00:48:11.791Z,68.51
2022-08-05T00:50:41.292Z,64.55
2022-08-05T00:53:16.035Z,66.80
2022-08-05T00:55:54.999Z,65.61
2022-08-05T00:58:21.726Z,66.89
2022-08-05T01:00:54.000Z,66.61
2022-08-05T01:03:23.236Z,65.85
2022-08-05T01:05:54.896Z,64.30
2022-08-05T01:08:40.885Z,64.39
2022-08-05T01:11:13.845Z,63.40
2022-08-05T01:14:15.274Z,63.25
2022-08-05T01:17:03.031Z,63.81
2022-08-05T01:20:01.823Z,62.31
2022-08-05T01:22:57.432Z,63.43
2022-08-05T01:25:42.558Z,63.59
2022-08-05T01:28:46.519Z,63.22
2022-08-05T01:31:17.020Z,64.99
2022-08-05T01:33:53.671Z,63.17
2022-08-05T01:36:28.265Z,64.41
2022-08-05T01:38:56.706Z,66.40
2022-08-05T01:41:32.066Z,65.51
2022-08-05T01:44:01.055Z,65.26
2022-08-05T01:46:42.904Z,65.40
2022-08-05T01:49:24.143Z,64.44
2022-08-05T01:51:55.004Z,64.57
2022-08-05T01:54:25.647Z,64.71
2022-08-05T01:58:11.073Z,63.47
2022-08-05T01:59:47.110Z,64.99
2022-08-05T02:02:15.969Z,64.86
2022-08-05T02:04:46.108Z,67.94
2022-08-05T02:07:22.071Z,66.79
2022-08-05T02:09:49.263Z,66.67
2022-08-05T02:12:27.782Z,65.27
2022-08-05T02:15:15.569Z,64.57
2022-08-05T02:18:31.170Z,64.07
2022-08-05T02:20:58.707Z,65.88
2022-08-05T02:23:33.812Z,66.54
2022-08-05T02:26:04.733Z,69.72
2022-08-05T02:28:41.480Z,72.88
2022-08-05T02:31:15.053Z,72.60
2022-08-05T02:33:43.921Z,74.42
2022-08-05T02:36:15.338Z,75.49
2022-08-05T02:38:53.098Z,74.93
2022-08-05T02:41:22.954Z,75.21
2022-08-05T02:44:02.869Z,74.96
2022-08-05T02:46:35.253Z,71.37
2022-08-05T02:49:02.481Z,70.20
2022-08-05T02:52:03.205Z,74.62
2022-08-05T02:54:36.153Z,75.63
2022-08-05T02:57:09.927Z,75.38
2022-08-05T02:59:53.361Z,78.91
2022-08-05T03:02:24.281Z,76.67
2022-08-05T03:04:57.225Z,78.26
2022-08-05T03:08:00.073Z,76.17
2022-08-05T03:10:15.975Z,78.36
2022-08-05T03:12:48.465Z,76.51
2022-08-05T03:15:18.410Z,75.28
2022-08-05T03:17:44.954Z,75.78
2022-08-05T03:20:11.775Z,74.72
2022-08-05T03:22:44.198Z,75.78
2022-08-05T03:25:32.553Z,75.39
2022-08-05T03:28:08.446Z,73.72
2022-08-05T03:30:35.847Z,72.00
2022-08-05T03:33:05.825Z,75.07
2022-08-05T03:35:33.861Z,77.04
2022-08-05T03:38:01.086Z,74.78
2022-08-05T03:40:32.232Z,75.35
2022-08-05T03:43:16.027Z,73.82
2022-08-05T03:45:57.216Z,74.97
2022-08-05T03:48:26.751Z,75.00
2022-08-05T03:52:38.731Z,72.57
2022-08-05T03:56:05.391Z,72.67
2022-08-05T03:56:50.098Z,76.49
2022-08-05T03:59:46.849Z,73.99
2022-08-05T04:02:17.611Z,72.93
2022-08-05T04:05:06.156Z,74.13
2022-08-05T04:07:58.521Z,74.14
2022-08-05T04:10:27.495Z,73.14
2022-08-05T04:12:55.224Z,73.64
2022-08-05T04:15:24.431Z,72.76
2022-08-05T04:17:56.659Z,73.15
2022-08-05T04:20:24.259Z,72.70
2022-08-05T04:22:50.623Z,74.22
2022-08-05T04:25:17.264Z,73.49
2022-08-05T04:27:58.088Z,75.87
2022-08-05T04:30:26.518Z,71.89
2022-08-05T04:32:55.388Z,73.48
2022-08-05T04:35:22.773Z,70.48
2022-08-05T04:38:01.429Z,72.08
2022-08-05T04:40:36.873Z,71.14
2022-08-05T04:43:04.147Z,72.19
2022-08-05T04:45:48.915Z,70.87
2022-08-05T04:48:26.933Z,71.28
2022-08-05T04:51:02.863Z,70.40
2022-08-05T04:53:38.917Z,72.65
2022-08-05T04:56:32.659Z,71.78
2022-08-05T04:58:53.950Z,69.23
2022-08-05T05:01:33.848Z,74.04
2022-08-05T05:04:06.635Z,74.89
2022-08-05T05:06:36.165Z,72.77
2022-08-05T05:09:06.182Z,71.31
2022-08-05T05:11:41.610Z,70.86
2022-08-05T05:14:19.535Z,68.25
2022-08-05T05:16:58.585Z,68.88
2022-08-05T05:19:27.498Z,67.59
2022-08-05T05:22:24.101Z,68.07
2022-08-05T05:24:58.006Z,66.10
2022-08-05T05:27:45.122Z,67.75
2022-08-05T05:30:28.755Z,67.69
2022-08-05T05:32:57.094Z,67.57
2022-08-05T05:35:27.827Z,65.83
2022-08-05T05:37:59.925Z,68.85
2022-08-05T05:40:28.683Z,67.93
2022-08-05T05:42:56.866Z,67.80
2022-08-05T05:45:23.288Z,68.18
2022-08-05T05:48:06.266Z,70.10
2022-08-05T05:50:35.701Z,66.72
2022-08-05T05:53:22.111Z,67.72
2022-08-05T05:55:52.281Z,69.60
2022-08-05T05:58:32.013Z,69.98
2022-08-05T06:01:02.537Z,67.76
2022-08-05T06:04:00.872Z,66.33
2022-08-05T06:06:31.019Z,65.25
2022-08-05T06:08:58.036Z,65.46
2022-08-05T06:11:24.445Z,66.63
2022-08-05T06:13:53.965Z,67.42
2022-08-05T06:16:28.597Z,67.39
2022-08-05T06:18:57.529Z,66.20
2022-08-05T06:21:36.481Z,65.64
2022-08-05T06:24:06.293Z,66.71
2022-08-05T06:26:37.539Z,67.84
2022-08-05T06:29:23.773Z,71.82
2022-08-05T06:31:52.211Z,71.56
2022-08-05T06:34:20.166Z,76.40
2022-08-05T06:36:57.495Z,78.68
2022-08-05T06:39:27.090Z,78.03
2022-08-05T06:41:55.352Z,76.76
2022-08-05T06:44:22.261Z,74.92
2022-08-05T06:46:50.913Z,75.78
2022-08-05T06:49:17.798Z,78.05
2022-08-05T06:51:45.547Z,79.55
2022-08-05T06:54:18.104Z,79.21
2022-08-05T06:56:54.784Z,75.29
2022-08-05T06:59:38.912Z,74.78
2022-08-05T07:02:08.937Z,75.50
2022-08-05T07:04:35.257Z,74.10
2022-08-05T07:07:03.253Z,72.64
2022-08-05T07:09:37.346Z,76.57
2022-08-05T07:12:07.553Z,73.35
2022-08-05T07:14:34.831Z,72.09
2022-08-05T07:18:09.382Z,71.91
2022-08-05T07:20:31.619Z,70.27
2022-08-05T07:22:38.328Z,72.47
2022-08-05T07:25:22.833Z,71.90
2022-08-05T07:27:57.686Z,72.29
2022-08-05T07:30:32.562Z,70.75
2022-08-05T07:33:09.030Z,69.78
2022-08-05T07:36:04.264Z,69.26
2022-08-05T07:38:32.533Z,68.35
2022-08-05T07:42:07.743Z,71.88
2022-08-05T07:43:55.173Z,69.92
2022-08-05T07:46:25.549Z,69.28
2022-08-05T07:49:01.798Z,68.99
2022-08-05T07:51:48.901Z,68.86
2022-08-05T07:54:21.456Z,69.27
2022-08-05T07:57:13.690Z,69.92
2022-08-05T07:59:40.551Z,69.81
2022-08-05T08:02:16.232Z,70.68
2022-08-05T08:04:48.391Z,72.13
2022-08-05T08:07:16.420Z,71.20
2022-08-05T08:09:44.825Z,68.87
2022-08-05T08:12:35.521Z,68.95
2022-08-05T08:15:02.488Z,66.82
2022-08-05T08:17:31.155Z,66.45
2022-08-05T08:20:21.965Z,65.93
2022-08-05T08:22:43.920Z,64.69
2022-08-05T08:25:16.281Z,66.40
2022-08-05T08:27:47.573Z,67.53
2022-08-05T08:30:29.672Z,67.41
2022-08-05T08:33:08.383Z,65.88
2022-08-05T08:35:40.860Z,67.24
2022-08-05T08:38:11.626Z,65.66
2022-08-05T08:40:46.648Z,62.83
2022-08-05T08:45:16.101Z,63.12
2022-08-05T08:46:06.278Z,65.05
2022-08-05T08:48:59.316Z,65.32
2022-08-05T08:52:04.360Z,65.11
2022-08-05T08:54:15.203Z,64.08
2022-08-05T08:56:47.583Z,63.95
2022-08-05T08:59:19.666Z,62.34
2022-08-05T09:02:08.688Z,61.74
2022-08-05T09:05:16.041Z,63.55
2022-08-05T09:08:02.095Z,66.35
2022-08-05T09:10:48.802Z,66.85
2022-08-05T09:13:16.151Z,67.80
2022-08-05T09:15:42.715Z,67.16
2022-08-05T09:18:10.286Z,67.64
2022-08-05T09:20:40.066Z,69.50
2022-08-05T09:23:09.222Z,67.93
2022-08-05T09:26:01.420Z,69.25
2022-08-05T09:28:31.948Z,69.49
2022-08-05T09:31:43.136Z,68.36
2022-08-05T09:34:09.844Z,68.07
2022-08-05T09:36:56.338Z,67.50
2022-08-05T09:39:39.380Z,66.35
2022-08-05T09:42:24.557Z,65.91
2022-08-05T09:44:56.691Z,65.07
2022-08-05T09:47:25.762Z,64.67
2022-08-05T09:50:01.169Z,64.77
2022-08-05T09:52:33.856Z,63.57
2022-08-05T09:55:57.383Z,65.36
2022-08-05T09:57:58.728Z,64.38
2022-08-05T10:00:27.687Z,62.62
2022-08-05T10:02:58.300Z,61.25
2022-08-05T10:05:28.272Z,60.56
2022-08-05T10:08:34.918Z,61.50
2022-08-05T10:10:50.198Z,60.91
2022-08-05T10:13:45.800Z,58.66
2022-08-05T10:16:41.678Z,58.72
2022-08-05T10:19:23.693Z,57.67
2022-08-05T10:21:58.419Z,59.78
2022-08-05T10:24:25.088Z,58.20
2022-08-05T10:26:53.721Z,60.04
2022-08-05T10:30:05.879Z,58.76
2022-08-05T10:32:53.400Z,59.88
2022-08-05T10:34:54.839Z,57.99
2022-08-05T10:37:21.830Z,58.07
2022-08-05T10:39:59.386Z,58.56
2022-08-05T10:42:35.214Z,62.08
2022-08-05T10:45:09.568Z,67.02
2022-08-05T10:48:29.185Z,66.89
2022-08-05T10:50:58.093Z,68.09
2022-08-05T10:53:42.649Z,68.67
2022-08-05T10:56:25.369Z,66.70
2022-08-05T10:58:55.236Z,68.10
2022-08-05T11:01:55.203Z,67.81
2022-08-05T11:04:21.797Z,67.87
2022-08-05T11:07:00.073Z,67.53
2022-08-05T11:09:45.495Z,66.24
2022-08-05T11:12:35.112Z,65.86
2022-08-05T11:15:19.338Z,68.35
2022-08-05T11:17:59.783Z,68.74
2022-08-05T11:20:41.567Z,66.38
2022-08-05T11:23:33.578Z,70.71
2022-08-05T11:26:29.041Z,66.94
2022-08-05T11:29:12.360Z,67.36
2022-08-05T11:31:56.448Z,65.23
2022-08-05T11:34:47.447Z,63.81
2022-08-05T11:38:28.776Z,65.57
2022-08-05T11:41:01.042Z,64.15
2022-08-05T11:44:04.355Z,67.42
2022-08-05T11:46:32.319Z,67.73
2022-08-05T11:49:01.174Z,67.59
2022-08-05T11:51:44.555Z,65.75
2022-08-05T11:54:33.554Z,66.04
2022-08-05T11:57:08.807Z,66.23
2022-08-05T11:59:49.949Z,68.68
2022-08-05T12:02:29.790Z,66.30
2022-08-05T12:05:00.695Z,67.60
2022-08-05T12:08:08.074Z,68.58
2022-08-05T12:10:25.192Z,69.90
2022-08-05T12:13:15.525Z,67.88
2022-08-05T12:15:45.051Z,68.04
2022-08-05T12:18:17.198Z,66.68
2022-08-05T12:20:43.919Z,66.98
2022-08-05T12:23:12.251Z,67.63
2022-08-05T12:25:53.379Z,66.59
2022-08-05T12:28:36.994Z,64.76
2022-08-05T12:31:05.058Z,65.87
2022-08-05T12:33:36.740Z,65.30
2022-08-05T12:36:09.661Z,65.06
2022-08-05T12:38:41.397Z,66.73
2022-08-05T12:41:17.041Z,67.03
2022-08-05T12:43:51.537Z,67.33
2022-08-05T12:46:29.359Z,68.98
2022-08-05T12:49:13.905Z,67.24
2022-08-05T12:52:13.479Z,66.30
2022-08-05T12:54:47.343Z,69.36
2022-08-05T12:57:16.366Z,66.66
2022-08-05T13:01:57.017Z,65.91
2022-08-05T13:02:41.482Z,64.56
2022-08-05T13:05:11.050Z,65.18
2022-08-05T13:08:00.464Z,64.92
2022-08-05T13:10:28.823Z,62.63
2022-08-05T13:12:58.198Z,62.62
2022-08-05T13:15:42.045Z,61.23
2022-08-05T13:18:19.398Z,62.48
2022-08-05T13:20:47.485Z,61.20
2022-08-05T13:23:16.332Z,62.17
2022-08-05T13:25:52.683Z,63.09
2022-08-05T13:28:25.444Z,61.65
2022-08-05T13:30:53.325Z,61.25
2022-08-05T13:34:21.229Z,60.67
2022-08-05T13:36:06.984Z,62.83
2022-08-05T13:38:38.180Z,62.92
2022-08-05T13:41:09.306Z,63.18
2022-08-05T13:43:45.165Z,62.44
2022-08-05T13:46:43.916Z,59.61
2022-08-05T13:49:11.516Z,58.91
2022-08-05T13:51:41.049Z,60.19
2022-08-05T13:54:12.473Z,60.92
2022-08-05T13:56:45.114Z,60.33
2022-08-05T13:59:19.989Z,59.77
2022-08-05T14:01:59.175Z,58.68
2022-08-05T14:04:33.356Z,59.96
2022-08-05T14:07:24.876Z,60.58
2022-08-05T14:09:46.645Z,58.92
2022-08-05T14:12:17.653Z,59.40
2022-08-05T14:14:44.468Z,59.00
2022-08-05T14:17:17.076Z,59.73
2022-08-05T14:19:55.198Z,59.45
2022-08-05T14:22:24.377Z,59.36
2022-08-05T14:24:56.886Z,59.21
2022-08-05T14:27:23.870Z,59.95
2022-08-05T14:29:55.001Z,59.88
2022-08-05T14:32:27.654Z,59.07
2022-08-05T14:34:56.829Z,57.78
2022-08-05T14:37:45.203Z,57.54
2022-08-05T14:40:14.221Z,57.20
2022-08-05T14:42:43.565Z,59.13
2022-08-05T14:45:10.498Z,56.63
2022-08-05T14:48:03.237Z,56.07
2022-08-05T14:50:25.267Z,54.55
2022-08-05T14:52:57.519Z,54.40
2022-08-05T14:55:25.321Z,54.37
2022-08-05T14:57:55.885Z,53.74
2022-08-05T15:00:28.222Z,51.86
2022-08-05T15:02:56.245Z,52.45
2022-08-05T15:05:29.560Z,52.25
2022-08-05T15:08:08.738Z,52.84
2022-08-05T15:10:42.378Z,51.96
2022-08-05T15:13:10.277Z,51.66
2022-08-05T15:15:54.599Z,52.87
2022-08-05T15:18:22.812Z,51.46
2022-08-05T15:20:49.445Z,52.10
2022-08-05T15:23:15.957Z,52.00
2022-08-05T15:25:53.866Z,52.06
2022-08-05T15:28:27.680Z,52.17
2022-08-05T15:30:54.811Z,54.78
2022-08-05T15:33:56.755Z,52.41
2022-08-05T15:36:09.045Z,52.60
2022-08-05T15:38:44.940Z,51.63
2022-08-05T15:41:23.209Z,51.89
2022-08-05T15:43:51.564Z,53.02
2022-08-05T15:46:20.109Z,52.99
2022-08-05T15:48:53.046Z,53.19
2022-08-05T15:52:04.305Z,53.64
2022-08-05T15:54:15.302Z,55.73
2022-08-05T15:56:42.159Z,54.60
2022-08-05T15:59:10.321Z,54.90
2022-08-05T16:01:52.246Z,54.43
2022-08-05T16:04:20.284Z,52.89
2022-08-05T16:06:51.685Z,52.83
2022-08-05T16:09:18.580Z,53.04
2022-08-05T16:11:52.616Z,52.95
2022-08-05T16:14:19.732Z,53.35
2022-08-05T16:16:46.663Z,53.32
2022-08-05T16:19:18.860Z,54.74
2022-08-05T16:22:01.058Z,53.42
2022-08-05T16:24:41.549Z,53.45
2022-08-05T16:27:15.825Z,52.56
2022-08-05T16:29:50.008Z,52.07
2022-08-05T16:32:17.246Z,51.22
2022-08-05T16:34:50.866Z,52.54
2022-08-05T16:38:16.051Z,52.32
2022-08-05T16:40:07.316Z,51.57
2022-08-05T16:42:39.922Z,53.47
2022-08-05T16:46:04.521Z,51.91
2022-08-05T16:47:57.423Z,51.93
2022-08-05T16:50:27.335Z,52.34
2022-08-05T16:52:53.667Z,53.33
2022-08-05T16:55:22.963Z,53.67
2022-08-05T16:57:59.843Z,52.58
2022-08-05T17:00:35.074Z,53.58
2022-08-05T17:03:09.266Z,53.95
2022-08-05T17:05:48.979Z,54.11
2022-08-05T17:08:33.401Z,53.86
2022-08-05T17:11:08.753Z,54.57
2022-08-05T17:13:37.253Z,54.95
2022-08-05T17:16:28.023Z,56.74
2022-08-05T17:18:54.719Z,53.71
2022-08-05T17:21:21.039Z,56.41
2022-08-05T17:24:04.457Z,55.23
2022-08-05T17:26:35.575Z,48.29
2022-08-05T17:29:04.224Z,44.91
2022-08-05T17:31:57.099Z,45.06
2022-08-05T17:34:20.411Z,42.58
2022-08-05T17:36:56.759Z,42.67
2022-08-05T17:39:24.330Z,42.07
2022-08-05T17:42:20.154Z,41.88
2022-08-05T17:44:42.515Z,41.82
2022-08-05T17:47:17.194Z,41.89
2022-08-05T17:49:52.039Z,42.30
2022-08-05T17:52:30.420Z,39.34
2022-08-05T17:54:57.719Z,39.20
2022-08-05T17:57:24.551Z,41.12
2022-08-05T18:00:03.113Z,42.98
2022-08-05T18:02:31.037Z,41.45
2022-08-05T18:04:57.713Z,41.43
2022-08-05T18:07:25.173Z,40.78
2022-08-05T18:10:08.835Z,41.84
2022-08-05T18:12:37.346Z,41.30
2022-08-05T18:15:04.210Z,41.91
2022-08-05T18:18:00.202Z,40.35
2022-08-05T18:20:18.837Z,41.38
2022-08-05T18:22:53.759Z,40.95
2022-08-05T18:25:20.659Z,40.93
2022-08-05T18:27:52.599Z,41.25
2022-08-05T18:30:19.574Z,41.49
2022-08-05T18:32:53.499Z,41.14
2022-08-05T18:35:49.387Z,41.07
2022-08-05T18:38:12.972Z,40.63
2022-08-05T18:41:53.616Z,40.87
2022-08-05T18:43:31.617Z,40.88
2022-08-05T18:46:04.984Z,41.12
2022-08-05T18:48:33.093Z,41.03
2022-08-05T18:52:03.340Z,41.01
2022-08-05T18:53:50.444Z,41.56
2022-08-05T18:56:17.018Z,42.57
2022-08-05T18:58:48.209Z,41.28
2022-08-05T19:01:17.851Z,41.78
2022-08-05T19:03:55.444Z,42.59
2022-08-05T19:06:37.264Z,42.02
2022-08-05T19:09:09.227Z,43.37
2022-08-05T19:11:37.118Z,43.17
2022-08-05T19:14:44.638Z,43.05
2022-08-05T19:17:08.577Z,42.71
2022-08-05T19:19:35.026Z,43.55
2022-08-05T19:22:01.514Z,43.04
2022-08-05T19:24:34.319Z,43.32
2022-08-05T19:27:03.960Z,42.31
2022-08-05T19:29:36.369Z,41.25
2022-08-05T19:32:05.173Z,42.53
2022-08-05T19:34:35.379Z,42.14
2022-08-05T19:37:02.073Z,43.38
2022-08-05T19:39:28.496Z,42.90
2022-08-05T19:42:06.417Z,43.27
2022-08-05T19:44:40.214Z,43.20
2022-08-05T19:47:12.217Z,42.25
2022-08-05T19:49:41.694Z,42.87
2022-08-05T19:52:30.498Z,42.74
2022-08-05T19:54:54.881Z,42.25
2022-08-05T19:57:28.496Z,42.74
2022-08-05T20:00:08.731Z,42.32
2022-08-05T20:02:35.901Z,42.48
2022-08-05T20:05:04.689Z,42.64
2022-08-05T20:07:46.445Z,43.67
2022-08-05T20:10:16.378Z,44.13
2022-08-05T20:12:45.995Z,43.97
2022-08-05T20:15:22.781Z,43.99
2022-08-05T20:18:10.042Z,44.97
2022-08-05T20:20:47.061Z,43.84
2022-08-05T20:23:13.953Z,44.36
2022-08-05T20:25:41.473Z,44.10
2022-08-05T20:28:08.163Z,45.31
2022-08-05T20:30:40.904Z,44.75
2022-08-05T20:33:08.043Z,44.64
2022-08-05T20:35:40.458Z,45.12
2022-08-05T20:38:11.870Z,45.31
2022-08-05T20:40:46.444Z,45.22
2022-08-05T20:43:17.193Z,45.09
2022-08-05T20:46:00.245Z,45.41
2022-08-05T20:48:27.037Z,46.66
2022-08-05T20:50:53.570Z,45.87
2022-08-05T20:53:36.936Z,46.75
2022-08-05T20:56:08.245Z,46.20
2022-08-05T20:58:35.371Z,46.52
2022-08-05T21:01:01.774Z,46.47
2022-08-05T21:03:29.696Z,47.34
2022-08-05T21:06:01.457Z,47.14
2022-08-05T21:08:42.072Z,47.67
2022-08-05T21:11:11.982Z,48.38
2022-08-05T21:13:48.186Z,47.49
2022-08-05T21:16:22.215Z,48.96
2022-08-05T21:18:55.479Z,48.15
2022-08-05T21:21:24.490Z,48.09
2022-08-05T21:23:51.062Z,47.74
2022-08-05T21:26:18.382Z,48.15
2022-08-05T21:28:47.643Z,49.01
2022-08-05T21:31:14.186Z,48.60
2022-08-05T21:33:43.025Z,49.10
2022-08-05T21:36:13.988Z,47.53
2022-08-05T21:38:53.801Z,48.56
2022-08-05T21:41:20.907Z,49.77
2022-08-05T21:44:01.792Z,48.80
2022-08-05T21:46:30.782Z,50.39
2022-08-05T21:48:57.160Z,49.14
2022-08-05T21:52:21.731Z,49.36
2022-08-05T21:54:12.718Z,49.89
2022-08-05T21:56:44.202Z,49.06
2022-08-05T21:59:23.893Z,48.75
2022-08-05T22:01:51.601Z,50.09
2022-08-05T22:04:21.039Z,49.35
2022-08-05T22:06:52.101Z,49.88
2022-08-05T22:09:21.487Z,49.32
2022-08-05T22:11:49.056Z,49.38
2022-08-05T22:14:33.397Z,49.93
2022-08-05T22:17:04.966Z,48.90
2022-08-05T22:20:01.088Z,49.67
2022-08-05T22:22:26.586Z,50.07
2022-08-05T22:24:55.738Z,50.41
2022-08-05T22:27:22.552Z,50.03
2022-08-05T22:29:48.890Z,50.03
2022-08-05T22:32:20.643Z,51.00
2022-08-05T22:34:49.304Z,50.66
2022-08-05T22:37:15.822Z,51.04
2022-08-05T22:39:42.266Z,50.64
2022-08-05T22:42:15.301Z,50.92
2022-08-05T22:44:53.662Z,50.48
2022-08-05T22:47:28.972Z,50.73
2022-08-05T22:50:20.078Z,51.27
2022-08-05T22:52:43.435Z,51.34
2022-08-05T22:55:18.303Z,51.27
2022-08-05T22:57:46.017Z,50.89
2022-08-05T23:00:12.989Z,51.53
2022-08-05T23:02:46.853Z,50.89
2022-08-05T23:05:17.316Z,50.35
2022-08-05T23:07:49.550Z,49.78
2022-08-05T23:10:20.067Z,51.17
2022-08-05T23:12:51.583Z,51.52
2022-08-05T23:15:28.967Z,50.96
2022-08-05T23:18:01.176Z,51.37
2022-08-05T23:20:30.356Z,51.63
2022-08-05T23:22:58.807Z,51.48
2022-08-05T23:25:52.005Z,51.11
2022-08-05T23:28:12.498Z,50.59
2022-08-05T23:30:40.044Z,51.57
2022-08-05T23:33:16.300Z,52.04
2022-08-05T23:35:49.680Z,52.05
2022-08-05T23:38:16.127Z,51.05
2022-08-05T23:40:49.550Z,51.56
2022-08-05T23:43:25.619Z,51.80
2022-08-05T23:46:02.929Z,52.28
2022-08-05T23:48:29.368Z,52.95
2022-08-05T23:50:55.673Z,51.64
2022-08-05T23:53:22.622Z,52.00
2022-08-05T23:55:49.560Z,53.37
2022-08-05T23:58:31.678Z,53.73
